createdAt,value
2023-05-06T00:00:48.905Z,0.00
2023-05-06T00:01:48.893Z,0.00
2023-05-06T00:02:48.930Z,0.00
2023-05-06T00:03:49.123Z,0.00
2023-05-06T00:04:48.946Z,0.00
2023-05-06T00:05:48.869Z,0.00
2023-05-06T00:06:48.847Z,0.00
2023-05-06T00:07:48.831Z,0.00
2023-05-06T00:08:48.823Z,0.00
2023-05-06T00:09:48.806Z,0.00
2023-05-06T00:10:48.867Z,0.00
2023-05-06T00:11:48.783Z,0.00
2023-05-06T00:12:48.810Z,0.00
2023-05-06T00:13:48.770Z,0.00
2023-05-06T00:14:48.760Z,0.00
2023-05-06T00:15:48.753Z,0.00
2023-05-06T00:16:48.824Z,0.00
2023-05-06T00:17:48.735Z,0.00
2023-05-06T00:18:48.723Z,0.00
2023-05-06T00:19:48.693Z,0.00
2023-05-06T00:20:48.698Z,0.00
2023-05-06T00:21:48.760Z,0.00
2023-05-06T00:22:48.676Z,0.00
2023-05-06T00:23:48.647Z,0.00
2023-05-06T00:24:48.657Z,0.00
2023-05-06T00:25:48.636Z,0.00
2023-05-06T00:26:48.624Z,0.00
2023-05-06T00:27:48.609Z,0.00
2023-05-06T00:28:48.623Z,0.00
2023-05-06T00:29:48.580Z,0.00
2023-05-06T00:30:48.604Z,0.00
2023-05-06T00:31:48.594Z,0.00
2023-05-06T00:32:48.608Z,0.00
2023-05-06T00:33:48.541Z,0.00
2023-05-06T00:34:48.555Z,0.00
2023-05-06T00:35:48.517Z,0.00
2023-05-06T00:36:48.522Z,0.00
2023-05-06T00:37:48.642Z,0.00
2023-05-06T00:38:48.491Z,0.00
2023-05-06T00:39:48.478Z,0.00
2023-05-06T00:40:48.513Z,0.00
2023-05-06T00:41:48.455Z,0.00
2023-05-06T00:42:48.486Z,0.00
2023-05-06T00:43:48.435Z,0.00
2023-05-06T00:44:48.425Z,0.00
2023-05-06T00:45:48.435Z,0.00
2023-05-06T00:46:48.433Z,0.00
2023-05-06T00:47:48.452Z,0.00
2023-05-06T00:48:48.395Z,0.00
2023-05-06T00:49:48.380Z,0.00
2023-05-06T00:50:48.358Z,0.00
2023-05-06T00:51:48.354Z,0.00
2023-05-06T00:52:48.373Z,0.00
2023-05-06T00:53:48.416Z,0.00
2023-05-06T00:54:48.317Z,0.00
2023-05-06T00:55:48.302Z,0.00
2023-05-06T00:56:48.331Z,0.00
2023-05-06T00:57:48.283Z,0.00
2023-05-06T00:58:48.308Z,0.00
2023-05-06T00:59:48.269Z,0.00
2023-05-06T01:00:48.264Z,0.00
2023-05-06T01:01:48.250Z,0.00
2023-05-06T01:02:48.534Z,0.00
2023-05-06T01:03:48.327Z,0.00
2023-05-06T01:04:48.228Z,0.00
2023-05-06T01:05:48.200Z,0.00
2023-05-06T01:06:48.183Z,0.00
2023-05-06T01:07:48.174Z,0.00
2023-05-06T01:08:48.183Z,0.00
2023-05-06T01:09:48.270Z,0.00
2023-05-06T01:10:48.166Z,0.00
2023-05-06T01:11:48.130Z,0.00
2023-05-06T01:12:48.155Z,0.00
2023-05-06T01:13:48.112Z,0.00
2023-05-06T01:14:48.112Z,0.00
2023-05-06T01:15:48.086Z,0.00
2023-05-06T01:16:48.166Z,0.00
2023-05-06T01:17:48.091Z,0.00
2023-05-06T01:18:48.062Z,0.00
2023-05-06T01:19:48.054Z,0.00
2023-05-06T01:20:48.047Z,0.00
2023-05-06T01:21:48.046Z,0.00
2023-05-06T01:22:48.076Z,0.00
2023-05-06T01:23:48.006Z,0.00
2023-05-06T01:24:48.022Z,0.00
2023-05-06T01:25:48.129Z,0.00
2023-05-06T01:26:47.983Z,0.00
2023-05-06T01:27:47.978Z,0.00
2023-05-06T01:28:47.988Z,0.00
2023-05-06T01:29:47.960Z,0.00
2023-05-06T01:30:47.979Z,0.00
2023-05-06T01:31:47.917Z,0.00
2023-05-06T01:32:47.952Z,0.00
2023-05-06T01:33:47.895Z,0.00
2023-05-06T01:34:47.912Z,0.00
2023-05-06T01:35:47.900Z,0.00
2023-05-06T01:36:47.888Z,0.00
2023-05-06T01:37:47.876Z,0.00
2023-05-06T01:38:47.848Z,0.00
2023-05-06T01:39:47.840Z,0.00
2023-05-06T01:40:47.840Z,0.00
2023-05-06T01:41:47.832Z,0.00
2023-05-06T01:42:47.805Z,0.00
2023-05-06T01:43:47.786Z,0.00
2023-05-06T01:44:47.792Z,0.00
2023-05-06T01:45:47.770Z,0.00
2023-05-06T01:46:47.804Z,0.00
2023-05-06T01:47:47.835Z,0.00
2023-05-06T01:48:47.735Z,0.00
2023-05-06T01:49:47.721Z,0.00
2023-05-06T01:50:47.714Z,0.00
2023-05-06T01:51:47.703Z,0.00
2023-05-06T01:52:47.739Z,0.00
2023-05-06T01:53:47.693Z,0.00
2023-05-06T01:54:47.669Z,0.00
2023-05-06T01:55:47.656Z,0.00
2023-05-06T01:56:47.647Z,0.00
2023-05-06T01:57:47.732Z,0.00
2023-05-06T01:58:47.653Z,0.00
2023-05-06T01:59:47.614Z,0.00
2023-05-06T02:00:47.606Z,0.00
2023-05-06T02:01:47.613Z,0.00
2023-05-06T02:02:47.799Z,0.00
2023-05-06T02:03:47.895Z,0.00
2023-05-06T02:04:47.574Z,0.00
2023-05-06T02:05:47.551Z,0.00
2023-05-06T02:06:47.541Z,0.00
2023-05-06T02:07:47.538Z,0.00
2023-05-06T02:08:47.518Z,0.00
2023-05-06T02:09:47.520Z,0.00
2023-05-06T02:10:47.496Z,0.00
2023-05-06T02:11:47.491Z,0.00
2023-05-06T02:12:47.495Z,0.00
2023-05-06T02:13:47.482Z,0.00
2023-05-06T02:14:47.454Z,0.00
2023-05-06T02:15:47.482Z,0.00
2023-05-06T02:16:47.442Z,0.00
2023-05-06T02:17:47.487Z,0.00
2023-05-06T02:18:47.407Z,0.00
2023-05-06T02:19:47.394Z,0.00
2023-05-06T02:20:47.400Z,0.00
2023-05-06T02:21:47.390Z,0.00
2023-05-06T02:22:47.366Z,0.00
2023-05-06T02:23:47.375Z,0.00
2023-05-06T02:24:47.344Z,0.00
2023-05-06T02:25:47.329Z,0.00
2023-05-06T02:26:47.335Z,0.00
2023-05-06T02:27:47.322Z,0.00
2023-05-06T02:28:47.307Z,0.00
2023-05-06T02:29:47.408Z,0.00
2023-05-06T02:30:47.292Z,0.00
2023-05-06T02:31:47.278Z,0.00
2023-05-06T02:32:47.345Z,0.00
2023-05-06T02:33:47.258Z,0.00
2023-05-06T02:34:47.235Z,0.00
2023-05-06T02:35:47.220Z,0.00
2023-05-06T02:36:47.229Z,0.00
2023-05-06T02:37:47.199Z,0.00
2023-05-06T02:38:47.191Z,0.00
2023-05-06T02:39:47.193Z,0.00
2023-05-06T02:40:47.186Z,0.00
2023-05-06T02:41:47.159Z,0.00
2023-05-06T02:42:47.205Z,0.00
2023-05-06T02:43:47.146Z,0.00
2023-05-06T02:44:47.126Z,0.00
2023-05-06T02:45:47.237Z,0.00
2023-05-06T02:46:47.114Z,0.00
2023-05-06T02:47:47.112Z,0.00
2023-05-06T02:48:47.085Z,0.00
2023-05-06T02:49:47.067Z,0.00
2023-05-06T02:50:47.063Z,0.00
2023-05-06T02:51:47.090Z,0.00
2023-05-06T02:52:47.038Z,0.00
2023-05-06T02:53:47.026Z,0.00
2023-05-06T02:54:47.027Z,0.00
2023-05-06T02:55:47.004Z,0.00
2023-05-06T02:56:47.024Z,0.00
2023-05-06T02:57:47.000Z,0.00
2023-05-06T02:58:46.971Z,0.00
2023-05-06T02:59:46.963Z,0.00
2023-05-06T03:00:46.997Z,0.00
2023-05-06T03:01:47.078Z,0.00
2023-05-06T03:02:46.998Z,0.00
2023-05-06T03:03:46.940Z,0.00
2023-05-06T03:04:46.907Z,0.00
2023-05-06T03:05:46.895Z,0.00
2023-05-06T03:06:46.900Z,0.00
2023-05-06T03:07:46.899Z,0.00
2023-05-06T03:08:46.875Z,0.00
2023-05-06T03:09:46.876Z,0.00
2023-05-06T03:10:46.842Z,0.00
2023-05-06T03:11:46.832Z,0.00
2023-05-06T03:12:46.884Z,0.00
2023-05-06T03:13:46.805Z,0.00
2023-05-06T03:14:46.810Z,0.00
2023-05-06T03:15:46.809Z,0.00
2023-05-06T03:16:46.824Z,0.00
2023-05-06T03:17:46.879Z,0.00
2023-05-06T03:18:46.771Z,0.00
2023-05-06T03:19:46.758Z,0.00
2023-05-06T03:20:46.737Z,0.00
2023-05-06T03:21:46.773Z,0.00
2023-05-06T03:22:46.723Z,0.00
2023-05-06T03:23:46.695Z,0.00
2023-05-06T03:24:46.694Z,0.00
2023-05-06T03:25:46.676Z,0.00
2023-05-06T03:26:46.672Z,0.00
2023-05-06T03:27:46.672Z,0.00
2023-05-06T03:28:46.656Z,0.00
2023-05-06T03:29:46.639Z,0.00
2023-05-06T03:30:46.640Z,0.00
2023-05-06T03:31:46.681Z,0.00
2023-05-06T03:32:46.656Z,0.00
2023-05-06T03:33:46.612Z,0.00
2023-05-06T03:34:46.595Z,0.00
2023-05-06T03:35:46.570Z,0.00
2023-05-06T03:36:46.564Z,0.00
2023-05-06T03:37:46.544Z,0.00
2023-05-06T03:38:46.537Z,0.00
2023-05-06T03:39:46.557Z,0.00
2023-05-06T03:40:46.530Z,0.00
2023-05-06T03:41:46.502Z,0.00
2023-05-06T03:42:46.493Z,0.00
2023-05-06T03:43:46.478Z,0.00
2023-05-06T03:44:46.487Z,0.00
2023-05-06T03:45:46.579Z,0.00
2023-05-06T03:46:46.462Z,0.00
2023-05-06T03:47:46.808Z,0.00
2023-05-06T03:48:46.426Z,0.00
2023-05-06T03:49:46.513Z,0.00
2023-05-06T03:50:46.422Z,0.00
2023-05-06T03:51:46.392Z,0.00
2023-05-06T03:52:46.385Z,0.00
2023-05-06T03:53:46.372Z,0.00
2023-05-06T03:54:46.370Z,0.00
2023-05-06T03:55:46.360Z,0.00
2023-05-06T03:56:46.355Z,0.00
2023-05-06T03:57:46.351Z,0.00
2023-05-06T03:58:46.335Z,0.00
2023-05-06T03:59:46.311Z,0.00
2023-05-06T04:00:46.296Z,5.62
2023-05-06T04:01:46.327Z,5.62
2023-05-06T04:02:46.349Z,5.62
2023-05-06T04:03:46.280Z,5.62
2023-05-06T04:04:46.256Z,5.62
2023-05-06T04:05:46.293Z,5.62
2023-05-06T04:06:46.230Z,5.62
2023-05-06T04:07:46.231Z,5.62
2023-05-06T04:08:46.234Z,5.62
2023-05-06T04:09:46.194Z,5.62
2023-05-06T04:10:46.183Z,5.62
2023-05-06T04:11:46.182Z,5.62
2023-05-06T04:12:46.195Z,5.62
2023-05-06T04:13:46.160Z,5.62
2023-05-06T04:14:46.173Z,5.62
2023-05-06T04:15:46.126Z,5.62
2023-05-06T04:16:46.230Z,11.25
2023-05-06T04:17:46.126Z,11.25
2023-05-06T04:18:46.127Z,11.25
2023-05-06T04:19:46.094Z,11.25
2023-05-06T04:20:46.090Z,11.25
2023-05-06T04:21:46.233Z,11.25
2023-05-06T04:22:46.056Z,11.25
2023-05-06T04:23:46.040Z,11.25
2023-05-06T04:24:46.043Z,11.25
2023-05-06T04:25:46.020Z,16.88
2023-05-06T04:26:46.042Z,16.88
2023-05-06T04:27:46.000Z,16.88
2023-05-06T04:28:46.001Z,22.50
2023-05-06T04:29:45.991Z,22.50
2023-05-06T04:30:46.000Z,22.50
2023-05-06T04:31:45.998Z,28.12
2023-05-06T04:32:45.979Z,28.12
2023-05-06T04:33:45.944Z,28.12
2023-05-06T04:34:45.924Z,33.75
2023-05-06T04:35:45.933Z,39.38
2023-05-06T04:36:45.915Z,39.38
2023-05-06T04:37:46.075Z,39.38
2023-05-06T04:38:45.907Z,45.00
2023-05-06T04:39:45.875Z,45.00
2023-05-06T04:40:45.878Z,45.00
2023-05-06T04:41:45.851Z,45.00
2023-05-06T04:42:45.848Z,45.00
2023-05-06T04:43:45.829Z,45.00
2023-05-06T04:44:45.844Z,45.00
2023-05-06T04:45:45.841Z,50.62
2023-05-06T04:46:45.798Z,50.62
2023-05-06T04:47:45.806Z,50.62
2023-05-06T04:48:45.784Z,50.62
2023-05-06T04:49:45.778Z,50.62
2023-05-06T04:50:45.784Z,50.62
2023-05-06T04:51:45.750Z,50.62
2023-05-06T04:52:45.731Z,50.62
2023-05-06T04:53:45.830Z,50.62
2023-05-06T04:54:45.872Z,50.62
2023-05-06T04:55:45.708Z,50.62
2023-05-06T04:56:45.706Z,50.62
2023-05-06T04:57:45.684Z,50.62
2023-05-06T04:58:45.665Z,56.25
2023-05-06T04:59:45.667Z,61.88
2023-05-06T05:00:45.638Z,61.88
2023-05-06T05:01:45.731Z,67.50
2023-05-06T05:02:45.710Z,73.12
2023-05-06T05:03:45.658Z,78.75
2023-05-06T05:04:45.599Z,84.38
2023-05-06T05:05:45.602Z,84.38
2023-05-06T05:06:45.579Z,84.38
2023-05-06T05:07:45.568Z,95.62
2023-05-06T05:08:45.574Z,95.62
2023-05-06T05:09:45.574Z,106.88
2023-05-06T05:10:45.538Z,106.88
2023-05-06T05:11:45.542Z,112.50
2023-05-06T05:12:45.570Z,112.50
2023-05-06T05:13:45.501Z,112.50
2023-05-06T05:14:45.520Z,118.12
2023-05-06T05:15:45.500Z,118.12
2023-05-06T05:16:45.497Z,118.12
2023-05-06T05:17:45.477Z,118.12
2023-05-06T05:18:45.448Z,112.50
2023-05-06T05:19:45.469Z,112.50
2023-05-06T05:20:45.426Z,112.50
2023-05-06T05:21:45.426Z,118.12
2023-05-06T05:22:45.401Z,118.12
2023-05-06T05:23:45.396Z,123.75
2023-05-06T05:24:45.379Z,135.00
2023-05-06T05:25:45.404Z,135.00
2023-05-06T05:26:45.369Z,146.25
2023-05-06T05:27:45.348Z,146.25
2023-05-06T05:28:45.341Z,151.88
2023-05-06T05:29:45.325Z,157.50
2023-05-06T05:30:45.324Z,157.50
2023-05-06T05:31:45.362Z,157.50
2023-05-06T05:32:45.371Z,157.50
2023-05-06T05:33:45.313Z,157.50
2023-05-06T05:34:45.270Z,151.88
2023-05-06T05:35:45.275Z,146.25
2023-05-06T05:36:45.257Z,146.25
2023-05-06T05:37:45.265Z,140.62
2023-05-06T05:38:45.224Z,140.62
2023-05-06T05:39:45.221Z,140.62
2023-05-06T05:40:45.206Z,140.62
2023-05-06T05:41:45.226Z,140.62
2023-05-06T05:42:45.182Z,140.62
2023-05-06T05:43:45.196Z,140.62
2023-05-06T05:44:45.174Z,140.62
2023-05-06T05:45:45.154Z,140.62
2023-05-06T05:46:45.247Z,140.62
2023-05-06T05:47:45.142Z,140.62
2023-05-06T05:48:45.116Z,140.62
2023-05-06T05:49:45.136Z,146.25
2023-05-06T05:50:45.097Z,151.88
2023-05-06T05:51:45.093Z,151.88
2023-05-06T05:52:45.093Z,163.12
2023-05-06T05:53:45.080Z,163.12
2023-05-06T05:54:45.049Z,163.12
2023-05-06T05:55:45.053Z,168.75
2023-05-06T05:56:45.036Z,174.38
2023-05-06T05:57:45.116Z,180.00
2023-05-06T05:58:45.018Z,185.62
2023-05-06T05:59:45.000Z,185.62
2023-05-06T06:00:45.004Z,191.25
2023-05-06T06:01:45.017Z,196.88
2023-05-06T06:02:45.117Z,202.50
2023-05-06T06:03:45.113Z,202.50
2023-05-06T06:04:44.995Z,208.12
2023-05-06T06:05:44.930Z,213.75
2023-05-06T06:06:44.919Z,213.75
2023-05-06T06:07:44.920Z,225.00
2023-05-06T06:08:44.903Z,230.62
2023-05-06T06:09:44.886Z,247.50
2023-05-06T06:10:44.880Z,264.38
2023-05-06T06:11:44.863Z,281.25
2023-05-06T06:12:44.891Z,292.50
2023-05-06T06:13:45.007Z,309.38
2023-05-06T06:14:44.839Z,326.25
2023-05-06T06:15:44.820Z,326.25
2023-05-06T06:16:44.914Z,337.50
2023-05-06T06:17:44.824Z,343.12
2023-05-06T06:18:44.833Z,354.38
2023-05-06T06:19:44.788Z,376.88
2023-05-06T06:20:44.773Z,393.75
2023-05-06T06:21:44.753Z,427.50
2023-05-06T06:22:44.743Z,444.38
2023-05-06T06:23:44.733Z,466.88
2023-05-06T06:24:44.730Z,500.62
2023-05-06T06:25:44.733Z,562.50
2023-05-06T06:26:44.697Z,556.88
2023-05-06T06:27:44.697Z,1147.50
2023-05-06T06:28:44.773Z,810.00
2023-05-06T06:29:44.762Z,798.75
2023-05-06T06:30:44.662Z,1170.00
2023-05-06T06:31:44.762Z,736.88
2023-05-06T06:32:44.657Z,669.38
2023-05-06T06:33:44.642Z,663.75
2023-05-06T06:34:44.612Z,804.38
2023-05-06T06:35:44.608Z,613.12
2023-05-06T06:36:44.594Z,579.38
2023-05-06T06:37:44.604Z,849.38
2023-05-06T06:38:44.587Z,725.62
2023-05-06T06:39:44.582Z,596.25
2023-05-06T06:40:44.554Z,579.38
2023-05-06T06:41:44.544Z,585.00
2023-05-06T06:42:44.531Z,568.12
2023-05-06T06:43:44.534Z,511.88
2023-05-06T06:44:52.177Z,466.88
2023-05-06T06:45:44.543Z,427.50
2023-05-06T06:46:44.492Z,393.75
2023-05-06T06:47:44.511Z,371.25
2023-05-06T06:48:44.463Z,354.38
2023-05-06T06:49:44.471Z,343.12
2023-05-06T06:50:44.442Z,326.25
2023-05-06T06:51:44.461Z,320.62
2023-05-06T06:52:44.420Z,315.00
2023-05-06T06:53:44.408Z,315.00
2023-05-06T06:54:44.411Z,315.00
2023-05-06T06:55:44.388Z,315.00
2023-05-06T06:56:44.387Z,320.62
2023-05-06T06:57:44.375Z,331.88
2023-05-06T06:58:44.365Z,337.50
2023-05-06T06:59:44.361Z,343.12
2023-05-06T07:00:44.548Z,348.75
2023-05-06T07:01:44.438Z,348.75
2023-05-06T07:02:44.393Z,360.00
2023-05-06T07:03:44.308Z,365.62
2023-05-06T07:04:44.479Z,371.25
2023-05-06T07:05:44.357Z,388.12
2023-05-06T07:06:44.350Z,399.38
2023-05-06T07:07:44.348Z,405.00
2023-05-06T07:08:44.339Z,405.00
2023-05-06T07:09:44.468Z,410.62
2023-05-06T07:10:44.220Z,416.25
2023-05-06T07:11:44.232Z,421.88
2023-05-06T07:12:44.224Z,427.50
2023-05-06T07:13:44.210Z,427.50
2023-05-06T07:14:44.178Z,427.50
2023-05-06T07:15:44.177Z,421.88
2023-05-06T07:16:46.412Z,427.50
2023-05-06T07:17:44.206Z,427.50
2023-05-06T07:18:44.142Z,433.12
2023-05-06T07:19:44.148Z,433.12
2023-05-06T07:20:44.104Z,427.50
2023-05-06T07:21:44.099Z,427.50
2023-05-06T07:22:44.140Z,427.50
2023-05-06T07:23:44.091Z,427.50
2023-05-06T07:24:44.073Z,438.75
2023-05-06T07:25:44.060Z,466.88
2023-05-06T07:26:44.038Z,495.00
2023-05-06T07:27:44.032Z,528.75
2023-05-06T07:28:44.030Z,551.25
2023-05-06T07:29:44.017Z,568.12
2023-05-06T07:30:43.995Z,579.38
2023-05-06T07:31:43.997Z,601.88
2023-05-06T07:32:44.168Z,607.50
2023-05-06T07:33:43.976Z,624.38
2023-05-06T07:34:43.950Z,646.88
2023-05-06T07:35:43.955Z,663.75
2023-05-06T07:36:43.932Z,675.00
2023-05-06T07:37:43.917Z,714.38
2023-05-06T07:38:43.904Z,753.75
2023-05-06T07:39:43.916Z,770.62
2023-05-06T07:40:43.879Z,787.50
2023-05-06T07:41:43.889Z,922.50
2023-05-06T07:42:43.858Z,1237.50
2023-05-06T07:43:43.860Z,888.75
2023-05-06T07:44:43.845Z,928.12
2023-05-06T07:45:43.853Z,1485.00
2023-05-06T07:46:43.883Z,1248.75
2023-05-06T07:47:43.887Z,855.00
2023-05-06T07:48:43.966Z,866.25
2023-05-06T07:49:43.783Z,1383.75
2023-05-06T07:50:43.771Z,776.25
2023-05-06T07:51:43.778Z,871.88
2023-05-06T07:52:43.751Z,680.62
2023-05-06T07:53:43.788Z,736.88
2023-05-06T07:54:43.735Z,1029.38
2023-05-06T07:55:43.715Z,1929.38
2023-05-06T07:56:43.704Z,1766.25
2023-05-06T07:57:43.694Z,1755.00
2023-05-06T07:58:43.686Z,1940.62
2023-05-06T07:59:43.702Z,2205.00
2023-05-06T08:00:43.666Z,2244.38
2023-05-06T08:01:43.653Z,2227.50
2023-05-06T08:02:43.759Z,2176.88
2023-05-06T08:03:43.876Z,2272.50
2023-05-06T08:04:43.803Z,2250.00
2023-05-06T08:05:43.621Z,2165.62
2023-05-06T08:06:43.612Z,2311.88
2023-05-06T08:07:43.591Z,1901.25
2023-05-06T08:08:43.571Z,1535.62
2023-05-06T08:09:43.580Z,1665.00
2023-05-06T08:10:43.577Z,2188.12
2023-05-06T08:11:43.569Z,2261.25
2023-05-06T08:12:43.552Z,2508.75
2023-05-06T08:13:43.523Z,2559.38
2023-05-06T08:14:43.514Z,2362.50
2023-05-06T08:15:43.513Z,2593.12
2023-05-06T08:16:43.672Z,1636.88
2023-05-06T08:17:43.528Z,1856.25
2023-05-06T08:18:43.466Z,1175.62
2023-05-06T08:19:43.459Z,1158.75
2023-05-06T08:20:43.546Z,1192.50
2023-05-06T08:21:43.457Z,2345.62
2023-05-06T08:22:43.423Z,1501.88
2023-05-06T08:23:43.432Z,1698.75
2023-05-06T08:24:43.443Z,2823.75
2023-05-06T08:25:43.413Z,2638.12
2023-05-06T08:26:43.383Z,2626.88
2023-05-06T08:27:43.374Z,2784.38
2023-05-06T08:28:43.357Z,2739.38
2023-05-06T08:29:43.364Z,2525.62
2023-05-06T08:30:43.354Z,2632.50
2023-05-06T08:31:43.402Z,2587.50
2023-05-06T08:32:43.344Z,2435.62
2023-05-06T08:33:43.309Z,2475.00
2023-05-06T08:34:43.289Z,2683.12
2023-05-06T08:35:43.296Z,2790.00
2023-05-06T08:36:43.469Z,2835.00
2023-05-06T08:37:43.264Z,2514.38
2023-05-06T08:38:43.252Z,2497.50
2023-05-06T08:39:43.249Z,2745.00
2023-05-06T08:40:43.247Z,2458.12
2023-05-06T08:41:43.230Z,2030.62
2023-05-06T08:42:43.207Z,2643.75
2023-05-06T08:43:43.225Z,2626.88
2023-05-06T08:44:43.185Z,2621.25
2023-05-06T08:45:43.217Z,2835.00
2023-05-06T08:46:43.164Z,2863.12
2023-05-06T08:47:43.191Z,2902.50
2023-05-06T08:48:43.145Z,2334.38
2023-05-06T08:49:43.136Z,1586.25
2023-05-06T08:50:43.177Z,1822.50
2023-05-06T08:51:43.116Z,1473.75
2023-05-06T08:52:43.198Z,2300.62
2023-05-06T08:53:43.098Z,1873.12
2023-05-06T08:54:43.082Z,1496.25
2023-05-06T08:55:43.068Z,1766.25
2023-05-06T08:56:43.067Z,1845.00
2023-05-06T08:57:43.065Z,1991.25
2023-05-06T08:58:43.046Z,1766.25
2023-05-06T08:59:43.042Z,1546.88
2023-05-06T09:00:43.013Z,3138.75
2023-05-06T09:01:43.083Z,2306.25
2023-05-06T09:02:43.426Z,2936.25
2023-05-06T09:03:42.991Z,3256.88
2023-05-06T09:04:42.981Z,2593.12
2023-05-06T09:05:42.994Z,1946.25
2023-05-06T09:06:42.979Z,2525.62
2023-05-06T09:07:42.963Z,2019.38
2023-05-06T09:08:43.019Z,2970.00
2023-05-06T09:09:42.917Z,2902.50
2023-05-06T09:10:42.909Z,3043.12
2023-05-06T09:11:42.906Z,3161.25
2023-05-06T09:12:42.902Z,3127.50
2023-05-06T09:13:42.869Z,3138.75
2023-05-06T09:14:42.875Z,3110.62
2023-05-06T09:15:42.876Z,3043.12
2023-05-06T09:16:42.887Z,2221.88
2023-05-06T09:17:42.873Z,2002.50
2023-05-06T09:18:42.819Z,1597.50
2023-05-06T09:19:42.804Z,1321.88
2023-05-06T09:20:42.806Z,1265.62
2023-05-06T09:21:42.798Z,1305.00
2023-05-06T09:22:42.773Z,1462.50
2023-05-06T09:23:42.773Z,1440.00
2023-05-06T09:24:42.849Z,1366.88
2023-05-06T09:25:42.770Z,1473.75
2023-05-06T09:26:42.743Z,1316.25
2023-05-06T09:27:42.719Z,1479.38
2023-05-06T09:28:42.712Z,1231.88
2023-05-06T09:29:42.713Z,1271.25
2023-05-06T09:30:42.740Z,1614.38
2023-05-06T09:31:42.687Z,1428.75
2023-05-06T09:32:42.697Z,1389.38
2023-05-06T09:33:42.654Z,1597.50
2023-05-06T09:34:42.670Z,1440.00
2023-05-06T09:35:42.665Z,1276.88
2023-05-06T09:36:42.624Z,1738.12
2023-05-06T09:37:42.656Z,2610.00
2023-05-06T09:38:42.614Z,1423.12
2023-05-06T09:39:42.598Z,1428.75
2023-05-06T09:40:42.681Z,1355.62
2023-05-06T09:41:42.580Z,1288.12
2023-05-06T09:42:42.555Z,1591.88
2023-05-06T09:43:42.545Z,1462.50
2023-05-06T09:44:42.551Z,1800.00
2023-05-06T09:45:42.522Z,2086.88
2023-05-06T09:46:42.601Z,1996.88
2023-05-06T09:47:42.537Z,2244.38
2023-05-06T09:48:42.490Z,2576.25
2023-05-06T09:49:42.476Z,2261.25
2023-05-06T09:50:42.471Z,1698.75
2023-05-06T09:51:42.501Z,1777.50
2023-05-06T09:52:42.460Z,2716.88
2023-05-06T09:53:42.443Z,1676.25
2023-05-06T09:54:42.424Z,1850.62
2023-05-06T09:55:42.422Z,1496.25
2023-05-06T09:56:42.527Z,1507.50
2023-05-06T09:57:42.396Z,2182.50
2023-05-06T09:58:42.383Z,1704.38
2023-05-06T09:59:42.376Z,1732.50
2023-05-06T10:00:42.383Z,1586.25
2023-05-06T10:01:42.369Z,1884.38
2023-05-06T10:02:42.449Z,1833.75
2023-05-06T10:03:42.477Z,1788.75
2023-05-06T10:04:42.573Z,1423.12
2023-05-06T10:05:42.316Z,1299.38
2023-05-06T10:06:42.292Z,1282.50
2023-05-06T10:07:42.290Z,1406.25
2023-05-06T10:08:42.279Z,2188.12
2023-05-06T10:09:42.258Z,1867.50
2023-05-06T10:10:42.262Z,3735.00
2023-05-06T10:11:42.248Z,2598.75
2023-05-06T10:12:42.682Z,1833.75
2023-05-06T10:13:42.220Z,2638.12
2023-05-06T10:14:42.206Z,1822.50
2023-05-06T10:15:42.250Z,1293.75
2023-05-06T10:16:42.315Z,1783.12
2023-05-06T10:17:42.214Z,3324.38
2023-05-06T10:18:42.161Z,2660.62
2023-05-06T10:19:42.148Z,3256.88
2023-05-06T10:20:42.138Z,3155.62
2023-05-06T10:21:42.132Z,3127.50
2023-05-06T10:22:42.129Z,2981.25
2023-05-06T10:23:42.121Z,2947.50
2023-05-06T10:24:42.102Z,2947.50
2023-05-06T10:25:42.084Z,2925.00
2023-05-06T10:26:42.076Z,1231.88
2023-05-06T10:27:42.067Z,663.75
2023-05-06T10:28:42.075Z,686.25
2023-05-06T10:29:42.050Z,731.25
2023-05-06T10:30:42.036Z,765.00
2023-05-06T10:31:42.049Z,1271.25
2023-05-06T10:32:42.045Z,1192.50
2023-05-06T10:33:42.520Z,860.62
2023-05-06T10:34:41.980Z,978.75
2023-05-06T10:35:41.989Z,2064.38
2023-05-06T10:36:41.965Z,2857.50
2023-05-06T10:37:41.959Z,3825.00
2023-05-06T10:38:41.956Z,3290.62
2023-05-06T10:39:42.317Z,708.75
2023-05-06T10:40:41.916Z,641.25
2023-05-06T10:41:41.921Z,641.25
2023-05-06T10:42:41.931Z,658.12
2023-05-06T10:43:41.890Z,697.50
2023-05-06T10:44:42.003Z,736.88
2023-05-06T10:45:41.892Z,770.62
2023-05-06T10:46:41.856Z,815.62
2023-05-06T10:47:41.891Z,1012.50
2023-05-06T10:48:41.840Z,849.38
2023-05-06T10:49:41.836Z,1372.50
2023-05-06T10:50:41.823Z,2514.38
2023-05-06T10:51:41.792Z,1310.62
2023-05-06T10:52:41.783Z,1006.88
2023-05-06T10:53:41.791Z,2801.25
2023-05-06T10:54:41.769Z,1406.25
2023-05-06T10:55:41.759Z,2840.62
2023-05-06T10:56:41.740Z,2964.38
2023-05-06T10:57:41.726Z,3386.25
2023-05-06T10:58:41.727Z,3346.88
2023-05-06T10:59:41.712Z,3375.00
2023-05-06T11:00:42.019Z,3217.50
2023-05-06T11:01:41.692Z,843.75
2023-05-06T11:02:41.735Z,742.50
2023-05-06T11:03:41.686Z,742.50
2023-05-06T11:04:41.661Z,765.00
2023-05-06T11:05:41.653Z,770.62
2023-05-06T11:06:41.638Z,708.75
2023-05-06T11:07:41.617Z,703.12
2023-05-06T11:08:41.610Z,731.25
2023-05-06T11:09:41.614Z,714.38
2023-05-06T11:10:41.589Z,680.62
2023-05-06T11:11:41.603Z,680.62
2023-05-06T11:12:41.616Z,669.38
2023-05-06T11:13:41.555Z,663.75
2023-05-06T11:14:41.549Z,658.12
2023-05-06T11:15:41.533Z,697.50
2023-05-06T11:16:41.710Z,714.38
2023-05-06T11:17:41.553Z,708.75
2023-05-06T11:18:41.513Z,675.00
2023-05-06T11:19:41.490Z,669.38
2023-05-06T11:20:41.485Z,708.75
2023-05-06T11:21:41.559Z,956.25
2023-05-06T11:22:41.464Z,1068.75
2023-05-06T11:23:41.470Z,995.62
2023-05-06T11:24:41.440Z,995.62
2023-05-06T11:25:41.540Z,832.50
2023-05-06T11:26:41.434Z,748.12
2023-05-06T11:27:41.404Z,714.38
2023-05-06T11:28:41.402Z,697.50
2023-05-06T11:29:41.407Z,697.50
2023-05-06T11:30:41.446Z,798.75
2023-05-06T11:31:41.392Z,832.50
2023-05-06T11:32:41.449Z,725.62
2023-05-06T11:33:41.337Z,720.00
2023-05-06T11:34:41.342Z,686.25
2023-05-06T11:35:41.326Z,669.38
2023-05-06T11:36:41.320Z,680.62
2023-05-06T11:37:41.315Z,781.88
2023-05-06T11:38:41.288Z,1912.50
2023-05-06T11:39:41.299Z,2863.12
2023-05-06T11:40:41.283Z,1040.62
2023-05-06T11:41:41.254Z,2851.88
2023-05-06T11:42:41.247Z,945.00
2023-05-06T11:43:41.232Z,838.12
2023-05-06T11:44:41.229Z,759.38
2023-05-06T11:45:41.223Z,714.38
2023-05-06T11:46:41.268Z,703.12
2023-05-06T11:47:41.236Z,826.88
2023-05-06T11:48:41.203Z,1771.88
2023-05-06T11:49:41.171Z,2328.75
2023-05-06T11:50:41.161Z,2221.88
2023-05-06T11:51:41.156Z,995.62
2023-05-06T11:52:41.152Z,1220.62
2023-05-06T11:53:41.125Z,1378.12
2023-05-06T11:54:41.182Z,2716.88
2023-05-06T11:55:41.103Z,2345.62
2023-05-06T11:56:41.109Z,2317.50
2023-05-06T11:57:41.090Z,2238.75
2023-05-06T11:58:41.097Z,2221.88
2023-05-06T11:59:41.057Z,2171.25
2023-05-06T12:00:41.051Z,2154.38
2023-05-06T12:01:41.036Z,2188.12
2023-05-06T12:02:41.050Z,810.00
2023-05-06T12:03:41.212Z,826.88
2023-05-06T12:04:41.207Z,1085.62
2023-05-06T12:05:40.993Z,2070.00
2023-05-06T12:06:40.986Z,1980.00
2023-05-06T12:07:40.977Z,843.75
2023-05-06T12:08:40.975Z,697.50
2023-05-06T12:09:40.955Z,691.88
2023-05-06T12:10:40.951Z,703.12
2023-05-06T12:11:42.565Z,838.12
2023-05-06T12:12:40.960Z,2452.50
2023-05-06T12:13:40.922Z,2570.62
2023-05-06T12:14:40.900Z,2463.75
2023-05-06T12:15:40.884Z,2328.75
2023-05-06T12:16:41.035Z,1991.25
2023-05-06T12:17:40.872Z,793.12
2023-05-06T12:18:40.859Z,753.75
2023-05-06T12:19:40.858Z,793.12
2023-05-06T12:20:40.942Z,2317.50
2023-05-06T12:21:40.819Z,1591.88
2023-05-06T12:22:40.822Z,1828.12
2023-05-06T12:23:40.812Z,2480.62
2023-05-06T12:24:40.790Z,2345.62
2023-05-06T12:25:40.787Z,2238.75
2023-05-06T12:26:40.769Z,2154.38
2023-05-06T12:27:40.753Z,2081.25
2023-05-06T12:28:40.758Z,2154.38
2023-05-06T12:29:40.739Z,2182.50
2023-05-06T12:30:40.753Z,748.12
2023-05-06T12:31:40.796Z,708.75
2023-05-06T12:32:40.734Z,714.38
2023-05-06T12:33:40.690Z,2340.00
2023-05-06T12:34:40.720Z,2458.12
2023-05-06T12:35:40.685Z,2435.62
2023-05-06T12:36:40.686Z,2379.38
2023-05-06T12:37:40.652Z,2295.00
2023-05-06T12:38:40.651Z,2283.75
2023-05-06T12:39:40.649Z,2458.12